Observations for VALLEY RAF, United Kingdom (EGOV)

EGOV 191950Z AUTO 01007KT 9999 FEW043/// BKN049/// 10/07 Q1005  
EGOV 191850Z AUTO 01012KT 9999 BKN049/// 11/06 Q1004
EGOV 191750Z AUTO 36016KT 9999 FEW026/// SCT030/// BKN080/// 11/07 Q1003
EGOV 191650Z AUTO 36015KT 9999 SCT031/// SCT090/// 11/08 Q1002 RERA 
EGOV 191550Z AUTO 36014KT 7000 -RADZ BKN042/// 10/09 Q1001  
EGOV 191450Z AUTO 35013KT 9999 FEW028/// SCT037/// BKN045/// 11/09 Q1001
EGOV 191350Z AUTO 33004KT 9999 SCT015/// SCT033/// BKN050/// 11/09 Q1000 RERA   
EGOV 191250Z AUTO 36008KT 9000 RA BKN023/// BKN045/// 11/09 Q0999   
EGOV 191150Z AUTO 09002KT 9999 -RA FEW018/// BKN034/// BKN050/// 10/09 Q0999
EGOV 191050Z AUTO 07001KT 9999 -RA FEW041/// BKN050/// 09/09 Q0999  
EGOV 190950Z AUTO 34004KT 6000 RA FEW022/// BKN039/// 09/08 Q0998   
EGOV 190850Z AUTO 34010G21KT 5000 +RA FEW013/// BKN022/// 10/08 Q0997   
EGOV 190750Z AUTO 31004KT 9999 SCT016/// BKN050/// 11/09 Q0997  
EGOV 190650Z AUTO 30006KT 9999 FEW019/// BKN050/// 10/09 Q0996  
EGOV 190550Z AUTO 30006KT 9999 FEW018/// SCT050/// 09/08 Q0996  
EGOV 190450Z AUTO 22003KT 9999 BKN021/// SCT050/// 10/09 Q0996 RERA 
EGOV 190350Z AUTO 13001KT 9999 FEW027/// SCT060/// 09/07 Q0995 RERA 
EGOV 190250Z AUTO 06004KT 9999 RA BKN050/// 09/08 Q0995 
EGOV 190150Z AUTO 23001KT 9999 BKN050/// BKN110/// 09/08 Q0994 RERA 
EGOV 190050Z AUTO 31002KT 9999 RA FEW016/// BKN046/// 09/08 Q0994   
EGOV 182350Z AUTO 29005KT 9999 FEW015/// BKN070/// 10/09 Q0994 RERA 
EGOV 182250Z AUTO 28007KT 9999 -RA FEW017/// BKN028/// 10/09 Q0993  
EGOV 182150Z AUTO 27005KT 9999 BKN040/// SCT050/// 09/08 Q0993 RERA 
EGOV 182050Z AUTO 30006KT 9999 FEW017/// SCT022/// BKN041/// 09/09 Q0993
EGOV 181950Z AUTO 24003KT 8000 BR FEW042/// SCT050/// 08/07 Q0992 RERA